Time;durP1;ratioP1;P1;durP2;ratioP2;P2;SDS_P1;SDS_P2;PMS_P1;PMS_P2;Temp;Humidity;BMP_temperature;BMP_pressure;BME280_temperature;BME280_humidity;BME280_pressure;Samples;Min_cycle;Max_cycle;Signal;HPM_P1;HPM_P2
2022/05/24 00:02:17;;;;;;;;;7.25;7.25;;;;;20.77;71.89;98353.25;5031559;28;45389;-63
2022/05/24 00:04:42;;;;;;;;;7.00;6.00;;;;;20.74;71.52;98343.66;5025014;28;45591;-63
2022/05/24 00:07:08;;;;;;;;;14.00;9.25;;;;;20.75;73.22;98353.38;5027959;28;45371;-63
2022/05/24 00:09:33;;;;;;;;;7.75;7.75;;;;;20.75;73.35;98350.69;5016148;28;45387;-63
2022/05/24 00:11:59;;;;;;;;;8.75;8.50;;;;;20.73;73.68;98349.16;5020226;28;45624;-63
2022/05/24 00:17:08;;;;;;;;;8.40;7.80;;;;;20.70;74.88;98349.44;5031604;28;45462;-63
2022/05/24 00:19:34;;;;;;;;;9.50;9.00;;;;;20.71;74.92;98349.28;5022258;28;45895;-63
2022/05/24 00:22:00;;;;;;;;;9.50;6.50;;;;;20.67;74.56;98355.91;5022239;28;45434;-63
2022/05/24 00:24:25;;;;;;;;;10.50;8.00;;;;;20.62;74.63;98360.00;5035751;28;46165;-63
2022/05/24 00:26:51;;;;;;;;;11.50;11.00;;;;;20.61;75.18;98363.69;5010190;28;45424;-63
2022/05/24 00:29:16;;;;;;;;;9.50;9.50;;;;;20.59;75.29;98353.13;5018448;28;45343;-63
2022/05/24 00:31:42;;;;;;;;;8.00;8.00;;;;;20.58;75.83;98353.28;5027821;28;45604;-63
2022/05/24 00:34:08;;;;;;;;;9.75;9.25;;;;;20.55;76.29;98344.53;5021860;28;45426;-63
2022/05/24 00:36:33;;;;;;;;;8.00;8.00;;;;;20.55;77.20;98349.88;5020044;28;45394;-63
2022/05/24 00:38:59;;;;;;;;;10.25;10.25;;;;;20.57;76.55;98346.22;5016550;28;45398;-63
2022/05/24 00:41:34;;;;;;;;;13.00;11.00;;;;;20.56;77.41;98340.00;5019028;28;45560;-63
2022/05/24 00:44:03;;;;;;;;;12.00;10.00;;;;;20.54;77.19;98342.00;5020815;28;46431;-63
2022/05/24 00:46:58;;;;;;;;;10.20;10.20;;;;;20.53;77.22;98356.38;5023858;28;45359;-63
2022/05/24 00:49:29;;;;;;;;;9.25;8.50;;;;;20.51;77.47;98359.19;5033847;28;45461;-63
2022/05/24 00:52:04;;;;;;;;;11.50;10.75;;;;;20.49;78.21;98355.78;5034740;28;45390;-63
2022/05/24 00:54:29;;;;;;;;;11.75;11.75;;;;;20.47;78.70;98360.44;5027969;28;46461;-63
2022/05/24 00:57:22;;;;;;;;;14.00;10.75;;;;;20.45;78.38;98359.75;5027896;28;45401;-63
2022/05/24 00:59:54;;;;;;;;;11.50;11.50;;;;;20.42;78.25;98365.41;5015151;28;45407;-63
2022/05/24 01:02:21;;;;;;;;;8.00;5.25;;;;;20.40;77.99;98367.38;5027531;28;45466;-63
2022/05/24 01:04:46;;;;;;;;;8.75;8.75;;;;;20.39;78.46;98365.69;5014833;28;45362;-63
2022/05/24 01:07:12;;;;;;;;;9.00;8.25;;;;;20.38;78.58;98374.69;5027754;28;45376;-63
2022/05/24 01:09:54;;;;;;;;;10.50;9.00;;;;;20.40;78.62;98372.72;5022241;28;45599;-63
2022/05/24 01:12:30;;;;;;;;;10.00;10.00;;;;;20.39;78.22;98379.06;5024025;28;45504;-63
2022/05/24 01:14:58;;;;;;;;;9.00;9.00;;;;;20.39;78.03;98381.75;5016416;28;46770;-63
2022/05/24 01:17:24;;;;;;;;;12.40;11.00;;;;;20.38;77.44;98377.38;5025167;28;45573;-63
2022/05/24 01:19:49;;;;;;;;;8.25;8.25;;;;;20.35;77.80;98374.94;5034805;28;45310;-63
2022/05/24 01:22:52;;;;;;;;;12.50;11.00;;;;;20.36;77.70;98376.66;5033580;28;45276;-63
2022/05/24 01:25:40;;;;;;;;;9.80;9.80;;;;;20.36;78.00;98382.03;5027975;28;46429;-63
2022/05/24 01:28:16;;;;;;;;;10.20;8.80;;;;;20.38;77.11;98384.56;5028787;28;45359;-63
2022/05/24 01:30:42;;;;;;;;;9.00;8.40;;;;;20.38;76.71;98377.38;5000858;28;45427;-63
2022/05/24 01:36:10;;;;;;;;;10.00;8.25;;;;;20.37;75.76;98374.84;5025540;28;45366;-63
2022/05/24 01:38:36;;;;;;;;;9.40;9.00;;;;;20.36;76.76;98379.34;5024232;28;45354;-63
2022/05/24 01:41:03;;;;;;;;;10.25;10.25;;;;;20.35;77.02;98380.28;5017422;28;45422;-63
2022/05/24 01:43:29;;;;;;;;;11.00;9.75;;;;;20.35;76.77;98379.44;5016374;28;45502;-63
2022/05/24 01:46:05;;;;;;;;;10.50;9.75;;;;;20.36;77.09;98383.81;5017843;28;45585;-63
2022/05/24 01:48:41;;;;;;;;;10.60;10.00;;;;;20.36;77.61;98386.50;5013117;28;45429;-63
2022/05/24 01:51:11;;;;;;;;;5.25;5.25;;;;;20.36;78.04;98395.41;5015880;28;45371;-63
2022/05/24 01:53:45;;;;;;;;;10.25;9.00;;;;;20.38;78.10;98395.28;5002533;28;45430;-63
2022/05/24 01:56:15;;;;;;;;;10.75;10.25;;;;;20.38;77.75;98403.31;5020483;28;46326;-63
2022/05/24 01:58:47;;;;;;;;;12.20;11.20;;;;;20.34;77.68;98397.34;5028411;28;45366;-63
2022/05/24 02:01:38;;;;;;;;;11.00;11.00;;;;;20.29;77.30;98407.63;5022035;28;45564;-63
2022/05/24 02:04:05;;;;;;;;;12.00;11.00;;;;;20.26;77.70;98399.03;5014892;28;45486;-63
2022/05/24 02:06:32;;;;;;;;;11.25;9.50;;;;;20.20;78.16;98403.97;5026051;28;45529;-63
2022/05/24 02:08:57;;;;;;;;;10.40;9.80;;;;;20.16;78.46;98407.06;5020484;28;45324;-63
2022/05/24 02:11:31;;;;;;;;;9.00;7.50;;;;;20.16;78.42;98407.91;5034054;28;45346;-63
2022/05/24 02:14:04;;;;;;;;;8.25;8.25;;;;;20.14;77.60;98399.16;5024856;28;45365;-63
2022/05/24 02:16:33;;;;;;;;;11.00;10.00;;;;;20.12;77.26;98405.63;5032008;28;45492;-63
2022/05/24 02:18:59;;;;;;;;;12.80;11.80;;;;;20.06;78.05;98403.53;5028754;28;45780;-63
2022/05/24 02:21:25;;;;;;;;;7.25;6.75;;;;;19.97;76.20;98402.50;5027883;28;45533;-63
2022/05/24 02:23:51;;;;;;;;;6.50;5.00;;;;;19.95;74.77;98404.47;5025263;28;45390;-63
2022/05/24 02:26:20;;;;;;;;;5.20;5.00;;;;;19.93;75.01;98409.16;5019926;28;46341;-63
2022/05/24 02:28:50;;;;;;;;;5.60;5.00;;;;;19.94;73.88;98413.47;5016032;28;45358;-63
2022/05/24 02:31:19;;;;;;;;;7.00;6.40;;;;;19.93;73.31;98416.31;5019324;28;45438;-63
2022/05/24 02:33:45;;;;;;;;;6.75;6.75;;;;;19.90;73.07;98406.75;5015357;28;45536;-63
2022/05/24 02:36:12;;;;;;;;;5.00;5.00;;;;;19.89;73.90;98413.06;5021185;28;46531;-63
2022/05/24 02:38:39;;;;;;;;;9.00;8.00;;;;;19.91;74.63;98411.09;5033655;28;45482;-63
2022/05/24 02:43:48;;;;;;;;;10.25;7.75;;;;;19.96;77.09;98416.03;5030374;28;45422;-63
2022/05/24 02:46:17;;;;;;;;;10.00;8.00;;;;;19.98;76.54;98422.94;5032707;28;45417;-63
2022/05/24 02:48:42;;;;;;;;;10.60;9.00;;;;;20.00;76.78;98420.97;5030663;28;45428;-63
2022/05/24 02:51:09;;;;;;;;;8.25;8.25;;;;;19.95;75.58;98415.19;5020629;28;45346;-63
2022/05/24 02:53:35;;;;;;;;;5.75;5.75;;;;;19.95;73.51;98427.69;5036536;28;45395;-63
2022/05/24 02:56:02;;;;;;;;;9.50;9.50;;;;;19.96;75.81;98430.25;5023302;28;46548;-63
2022/05/24 02:58:28;;;;;;;;;4.80;4.80;;;;;19.91;72.96;98435.19;5031794;28;45399;-63
2022/05/24 03:00:53;;;;;;;;;4.00;4.00;;;;;19.87;71.74;98433.75;5022289;28;45458;-63
2022/05/24 03:03:18;;;;;;;;;4.75;4.75;;;;;19.89;72.96;98434.47;5023484;28;45475;-63
2022/05/24 03:05:44;;;;;;;;;5.75;5.00;;;;;19.92;73.30;98438.72;5023253;28;45465;-63
2022/05/24 03:10:53;;;;;;;;;4.40;4.00;;;;;19.81;70.58;98434.28;5023232;28;45433;-63
2022/05/24 03:16:11;;;;;;;;;2.00;2.00;;;;;19.66;70.09;98436.50;5027688;28;45508;-63
2022/05/24 03:18:36;;;;;;;;;5.80;5.40;;;;;19.61;71.09;98437.88;5035336;28;45374;-63
2022/05/24 03:21:02;;;;;;;;;7.25;6.50;;;;;19.57;72.03;98433.81;5018345;28;45452;-63
2022/05/24 03:23:27;;;;;;;;;7.75;7.00;;;;;19.55;74.01;98443.78;5017441;28;45534;-63
2022/05/24 03:25:53;;;;;;;;;8.00;7.00;;;;;19.54;74.35;98434.91;5021555;28;46401;-63
2022/05/24 03:28:22;;;;;;;;;7.25;7.00;;;;;19.57;74.73;98434.66;5033311;28;45382;-63
2022/05/24 03:30:48;;;;;;;;;10.40;6.60;;;;;19.58;75.25;98441.69;5036028;28;45421;-63
2022/05/24 03:33:14;;;;;;;;;7.75;7.75;;;;;19.61;75.53;98441.41;5017805;28;45382;-63
2022/05/24 03:35:40;;;;;;;;;10.00;9.50;;;;;19.62;75.98;98443.09;5019659;28;45364;-63
2022/05/24 03:38:06;;;;;;;;;10.25;9.50;;;;;19.62;76.66;98448.44;5018286;28;45376;-63
2022/05/24 03:40:32;;;;;;;;;8.50;8.50;;;;;19.63;76.76;98446.63;5036076;28;45361;-63
2022/05/24 03:42:58;;;;;;;;;11.00;11.00;;;;;19.63;76.81;98451.97;5027851;28;45543;-63
2022/05/24 03:45:24;;;;;;;;;10.00;8.00;;;;;19.64;76.69;98450.97;5024430;28;46146;-63
2022/05/24 03:47:50;;;;;;;;;10.40;9.20;;;;;19.65;76.79;98458.88;5028176;28;45367;-63
2022/05/24 03:50:17;;;;;;;;;7.50;6.50;;;;;19.58;75.51;98451.53;5016191;28;45467;-63
2022/05/24 03:52:42;;;;;;;;;7.00;7.00;;;;;19.50;75.41;98453.03;5016949;28;45438;-63
2022/05/24 03:55:09;;;;;;;;;11.50;9.00;;;;;19.48;76.16;98467.50;5015707;28;45395;-63
2022/05/24 04:00:21;;;;;;;;;9.50;8.75;;;;;19.43;76.59;98457.22;5021455;28;45455;-63
2022/05/24 04:02:46;;;;;;;;;6.50;6.00;;;;;19.47;74.99;98463.13;5030161;28;45617;-58
2022/05/24 04:05:12;;;;;;;;;5.00;5.00;;;;;19.54;72.84;98452.78;5021142;28;46230;-57
2022/05/24 04:07:38;;;;;;;;;7.25;7.00;;;;;19.63;73.65;98454.63;5028737;28;45458;-58
2022/05/24 04:10:07;;;;;;;;;8.60;8.60;;;;;19.71;74.97;98455.66;5021388;28;45401;-58
2022/05/24 04:12:32;;;;;;;;;7.00;6.00;;;;;19.79;74.03;98460.31;5013794;28;45439;-58
2022/05/24 04:14:58;;;;;;;;;9.75;7.75;;;;;19.83;73.79;98456.41;5020659;28;46569;-58
2022/05/24 04:17:23;;;;;;;;;6.00;5.50;;;;;19.83;73.51;98467.97;5034489;28;45371;-58
2022/05/24 04:19:49;;;;;;;;;5.00;5.00;;;;;19.82;71.22;98474.28;5019820;28;45355;-68
2022/05/24 04:22:14;;;;;;;;;2.00;2.00;;;;;19.74;64.64;98514.25;5022671;28;45368;-67
2022/05/24 04:24:40;;;;;;;;;5.00;5.00;;;;;19.50;63.17;98511.88;5020433;28;45394;-66
2022/05/24 04:27:06;;;;;;;;;4.50;2.00;;;;;19.22;61.03;98533.88;5025339;28;45366;-67
2022/05/24 04:29:31;;;;;;;;;1.80;1.80;;;;;19.03;62.69;98550.63;5017129;28;45375;-66
2022/05/24 04:31:57;;;;;;;;;2.50;2.50;;;;;18.79;61.45;98536.63;5025276;28;45446;-66
2022/05/24 04:34:22;;;;;;;;;2.75;2.25;;;;;18.62;63.01;98543.34;5019742;28;46374;-66
2022/05/24 04:36:48;;;;;;;;;0.25;0.00;;;;;18.44;63.43;98543.00;5025786;28;45590;-66
2022/05/24 04:39:15;;;;;;;;;4.75;2.00;;;;;18.25;63.17;98542.81;5016499;28;45924;-66
2022/05/24 04:44:25;;;;;;;;;2.00;2.00;;;;;18.05;63.99;98546.25;5023486;28;45732;-66
2022/05/24 04:47:09;;;;;;;;;1.50;1.00;;;;;17.97;64.41;98533.50;5010097;28;45471;-66
2022/05/24 04:49:39;;;;;;;;;3.00;3.00;;;;;17.88;65.49;98550.25;5027472;28;45376;-66
2022/05/24 04:52:06;;;;;;;;;2.50;2.50;;;;;17.84;65.54;98582.59;5029190;28;45489;-66
2022/05/24 04:54:32;;;;;;;;;2.00;2.00;;;;;17.79;64.80;98553.63;5007127;28;48091;-66
2022/05/24 04:56:58;;;;;;;;;2.00;2.00;;;;;17.73;65.61;98548.78;5027186;28;45351;-66
2022/05/24 04:59:24;;;;;;;;;2.00;2.00;;;;;17.70;63.13;98557.03;5031166;28;45353;-66
2022/05/24 05:01:52;;;;;;;;;1.75;1.00;;;;;17.64;63.84;98554.81;5032674;28;45517;-66
2022/05/24 05:04:19;;;;;;;;;0.00;0.00;;;;;17.59;62.17;98554.31;4996987;28;46973;-66
2022/05/24 05:06:46;;;;;;;;;2.80;2.00;;;;;17.59;63.25;98554.31;5006812;28;45375;-66
2022/05/24 05:09:13;;;;;;;;;2.00;2.00;;;;;17.60;61.66;98556.84;5014872;28;45386;-66
2022/05/24 05:11:38;;;;;;;;;3.00;3.00;;;;;17.59;61.27;98549.00;5023093;28;45494;-67
2022/05/24 05:14:05;;;;;;;;;1.75;1.75;;;;;17.59;60.94;98586.31;5022886;28;45695;-66
2022/05/24 05:16:31;;;;;;;;;1.40;1.00;;;;;17.56;60.13;98581.19;5022169;28;45556;-66
2022/05/24 05:18:56;;;;;;;;;0.80;0.00;;;;;17.54;59.28;98599.97;5025964;28;45481;-66
2022/05/24 05:21:21;;;;;;;;;1.00;1.00;;;;;17.50;58.86;98593.19;5001022;28;45367;-66
2022/05/24 05:23:47;;;;;;;;;0.50;0.50;;;;;17.51;58.30;98612.69;5025968;28;45479;-66
2022/05/24 05:26:15;;;;;;;;;1.25;1.25;;;;;17.49;57.42;98618.13;5015919;28;45439;-66
2022/05/24 05:28:41;;;;;;;;;0.60;0.60;;;;;17.48;56.43;98595.09;5024695;28;45382;-66
2022/05/24 05:31:17;;;;;;;;;1.00;1.00;;;;;17.49;57.16;98602.13;5018259;28;45506;-66
2022/05/24 05:33:44;;;;;;;;;0.80;0.80;;;;;17.48;57.13;98602.25;5023094;28;46361;-66
2022/05/24 05:36:10;;;;;;;;;1.80;1.00;;;;;17.49;56.81;98602.13;5019553;28;45435;-65
2022/05/24 05:38:36;;;;;;;;;0.80;0.80;;;;;17.54;57.50;98621.31;5032873;28;45543;-65
2022/05/24 05:41:01;;;;;;;;;0.25;0.25;;;;;17.54;57.46;98623.13;5031386;28;45459;-65
2022/05/24 05:43:27;;;;;;;;;0.50;0.50;;;;;17.53;57.39;98608.09;5022090;28;46273;-62
2022/05/24 05:45:58;;;;;;;;;1.75;1.00;;;;;17.54;57.13;98601.78;5015386;28;45446;-67
2022/05/24 05:48:25;;;;;;;;;0.00;0.00;;;;;17.56;57.43;98614.03;5033066;28;45358;-65
2022/05/24 05:50:50;;;;;;;;;1.00;1.00;;;;;17.57;57.37;98617.56;5017764;28;45411;-66
2022/05/24 05:53:17;;;;;;;;;0.00;0.00;;;;;17.57;57.11;98602.41;5030431;28;46073;-65
2022/05/24 05:55:43;;;;;;;;;1.00;1.00;;;;;17.60;56.98;98615.47;5019042;28;45498;-65
2022/05/24 05:58:08;;;;;;;;;2.00;1.00;;;;;17.63;57.20;98607.25;5022883;28;45436;-66
2022/05/24 06:00:34;;;;;;;;;0.75;0.75;;;;;17.64;55.98;98630.31;5014901;28;45490;-66
2022/05/24 06:03:00;;;;;;;;;0.00;0.00;;;;;17.63;56.39;98615.25;5003919;28;48410;-66
2022/05/24 06:05:25;;;;;;;;;0.00;0.00;;;;;17.63;55.84;98657.91;5014185;28;45363;-66
2022/05/24 06:07:51;;;;;;;;;0.00;0.00;;;;;17.62;56.20;98634.03;5024463;28;45380;-65
2022/05/24 06:10:17;;;;;;;;;0.25;0.25;;;;;17.57;56.23;98637.06;5017269;28;45499;-65
2022/05/24 06:12:42;;;;;;;;;0.00;0.00;;;;;17.55;56.01;98622.16;5021183;28;45286;-68
2022/05/24 06:15:09;;;;;;;;;0.25;0.00;;;;;17.53;56.09;98635.59;5016453;28;45404;-68
2022/05/24 06:17:42;;;;;;;;;0.00;0.00;;;;;17.54;55.88;98653.28;5031742;28;45477;-67
2022/05/24 06:20:08;;;;;;;;;0.00;0.00;;;;;17.58;55.46;98648.56;5014368;28;45420;-67
2022/05/24 06:22:33;;;;;;;;;0.00;0.00;;;;;17.59;54.79;98635.13;5030663;28;45565;-67
2022/05/24 06:24:59;;;;;;;;;0.00;0.00;;;;;17.63;54.65;98623.25;5013918;28;45372;-65
2022/05/24 06:27:25;;;;;;;;;0.50;0.00;;;;;17.66;55.33;98619.53;5021017;28;45639;-66
2022/05/24 06:29:50;;;;;;;;;0.00;0.00;;;;;17.70;55.03;98619.19;5016483;28;45500;-66
2022/05/24 06:32:16;;;;;;;;;1.00;0.00;;;;;17.72;54.88;98625.25;5020755;28;45499;-66
2022/05/24 06:34:42;;;;;;;;;13.80;13.80;;;;;17.76;54.02;98660.53;5029855;28;45454;-66
2022/05/24 06:37:07;;;;;;;;;0.00;0.00;;;;;17.81;53.64;98636.16;5031356;28;45396;-66
2022/05/24 06:39:33;;;;;;;;;0.00;0.00;;;;;17.84;54.50;98620.78;5016845;28;45538;-66
2022/05/24 06:41:58;;;;;;;;;0.00;0.00;;;;;17.85;53.66;98640.28;5032946;28;45807;-65
2022/05/24 06:44:23;;;;;;;;;0.25;0.00;;;;;17.75;53.81;98630.34;5018183;28;45433;-66
2022/05/24 06:46:49;;;;;;;;;0.00;0.00;;;;;17.72;53.85;98638.59;4994069;28;45842;-66
2022/05/24 06:49:14;;;;;;;;;0.25;0.00;;;;;17.70;53.71;98671.66;5018123;28;45459;-65
2022/05/24 06:51:40;;;;;;;;;0.00;0.00;;;;;17.67;53.94;98662.06;5025206;28;45560;-65
2022/05/24 06:54:06;;;;;;;;;0.00;0.00;;;;;17.62;54.54;98637.53;5027673;28;45435;-65
2022/05/24 06:56:31;;;;;;;;;0.00;0.00;;;;;17.59;55.10;98653.78;5025785;28;45367;-66
2022/05/24 07:04:25;;;;;;;;;0.00;0.00;;;;;17.61;54.43;98638.50;5025162;28;45347;-66
2022/05/24 07:06:51;;;;;;;;;0.00;0.00;;;;;17.66;55.42;98641.72;5033480;28;45600;-67
2022/05/24 07:09:16;;;;;;;;;0.00;0.00;;;;;17.72;55.70;98635.06;5021922;28;45473;-66
2022/05/24 07:11:42;;;;;;;;;0.25;0.00;;;;;17.77;55.55;98614.22;5024711;28;45552;-66
2022/05/24 07:14:07;;;;;;;;;0.00;0.00;;;;;17.81;55.63;98641.50;5015954;28;45347;-66
2022/05/24 07:16:33;;;;;;;;;0.00;0.00;;;;;17.81;55.25;98638.81;5031311;28;45371;-66
2022/05/24 07:18:58;;;;;;;;;0.00;0.00;;;;;17.82;55.26;98641.38;5027158;28;45244;-66
2022/05/24 07:21:23;;;;;;;;;0.00;0.00;;;;;17.84;55.63;98638.59;5029046;28;46347;-67
2022/05/24 07:23:49;;;;;;;;;0.00;0.00;;;;;17.85;55.82;98661.63;5017967;28;45332;-66
2022/05/24 07:26:17;;;;;;;;;2.00;0.00;;;;;17.85;55.48;98669.63;5002894;28;45509;-67
2022/05/24 07:28:42;;;;;;;;;0.00;0.00;;;;;17.75;55.35;98658.84;5035100;28;45560;-67
2022/05/24 07:31:08;;;;;;;;;0.00;0.00;;;;;17.69;55.88;98667.28;5025857;28;46427;-66
2022/05/24 07:33:34;;;;;;;;;0.00;0.00;;;;;17.64;56.16;98664.13;5017587;28;45446;-66
2022/05/24 07:35:59;;;;;;;;;0.00;0.00;;;;;17.59;55.88;98660.94;5033122;28;45700;-66
2022/05/24 07:38:25;;;;;;;;;0.00;0.00;;;;;17.53;55.42;98688.03;5011321;28;45403;-66
2022/05/24 07:46:18;;;;;;;;;0.00;0.00;;;;;17.50;55.72;98685.59;5035239;28;45465;-67
2022/05/24 07:48:44;;;;;;;;;0.75;0.00;;;;;17.49;53.68;98665.25;5021919;28;45601;-66
2022/05/24 07:51:09;;;;;;;;;0.00;0.00;;;;;17.48;55.38;98699.03;5034756;28;45456;-66
2022/05/24 07:53:35;;;;;;;;;0.00;0.00;;;;;17.41;54.71;98677.34;5030609;28;45413;-66
2022/05/24 07:56:01;;;;;;;;;0.00;0.00;;;;;17.39;55.13;98649.97;5003968;28;45445;-66
2022/05/24 07:58:27;;;;;;;;;0.00;0.00;;;;;17.40;54.92;98680.13;5021216;28;45438;-66
2022/05/24 08:00:57;;;;;;;;;0.40;0.40;;;;;17.37;55.12;98685.69;5020161;28;45564;-66
2022/05/24 08:03:23;;;;;;;;;0.00;0.00;;;;;17.39;54.48;98671.28;5027528;28;45432;-66
2022/05/24 08:05:49;;;;;;;;;0.00;0.00;;;;;17.42;54.54;98694.19;5018912;28;45524;-66
2022/05/24 08:08:14;;;;;;;;;0.00;0.00;;;;;17.44;53.30;98679.75;5034154;28;45421;-66
2022/05/24 08:10:41;;;;;;;;;0.00;0.00;;;;;17.47;53.68;98673.34;5017981;28;45665;-66
2022/05/24 08:13:11;;;;;;;;;1.00;0.00;;;;;17.49;53.28;98668.75;5033543;28;45412;-66
2022/05/24 08:15:37;;;;;;;;;0.00;0.00;;;;;17.55;53.44;98684.31;5021841;28;45402;-66
2022/05/24 08:18:03;;;;;;;;;0.00;0.00;;;;;17.57;51.05;98684.19;5033440;28;45471;-65
2022/05/24 08:20:29;;;;;;;;;0.00;0.00;;;;;17.63;50.20;98675.72;5016591;28;45509;-67
2022/05/24 08:22:56;;;;;;;;;0.00;0.00;;;;;17.67;50.12;98691.41;5020473;28;45426;-66
2022/05/24 08:25:22;;;;;;;;;0.00;0.00;;;;;17.75;49.57;98681.03;5022590;28;45383;-66
2022/05/24 08:27:47;;;;;;;;;0.00;0.00;;;;;17.84;49.90;98676.78;5019721;28;45434;-66
2022/05/24 08:30:15;;;;;;;;;0.00;0.00;;;;;17.96;49.52;98675.81;4996434;28;47209;-66
2022/05/24 08:32:41;;;;;;;;;0.00;0.00;;;;;18.07;49.22;98686.53;5032497;28;45475;-66
2022/05/24 08:35:09;;;;;;;;;1.00;0.00;;;;;18.15;48.81;98675.25;5001658;28;45472;-66
2022/05/24 08:37:35;;;;;;;;;1.00;0.00;;;;;18.24;48.49;98681.69;5026860;28;45406;-66
2022/05/24 08:40:02;;;;;;;;;0.00;0.00;;;;;18.29;48.01;98706.19;5033243;28;46430;-66
2022/05/24 08:43:18;;;;;;;;;0.00;0.00;;;;;18.30;48.04;98689.22;5029428;28;45543;-67
2022/05/24 08:48:40;;;;;;;;;0.00;0.00;;;;;18.20;48.23;98697.09;5012634;28;45393;-67
2022/05/24 08:51:10;;;;;;;;;0.00;0.00;;;;;18.24;47.93;98695.91;5024804;28;46530;-67
2022/05/24 08:53:49;;;;;;;;;0.00;0.00;;;;;18.28;47.18;98697.31;5021370;28;45467;-67
2022/05/24 08:56:37;;;;;;;;;0.00;0.00;;;;;18.29;47.49;98688.34;5022128;28;45483;-68
2022/05/24 08:59:17;;;;;;;;;2.00;0.00;;;;;18.30;46.96;98682.06;5027922;28;45508;-67
2022/05/24 09:01:44;;;;;;;;;0.00;0.00;;;;;18.36;47.33;98707.41;5025804;28;46378;-68
2022/05/24 09:04:12;;;;;;;;;0.00;0.00;;;;;18.36;47.07;98699.41;5027669;28;45397;-67
2022/05/24 09:06:56;;;;;;;;;0.00;0.00;;;;;18.37;47.28;98701.97;5024171;28;45514;-67
2022/05/24 09:09:48;;;;;;;;;0.00;0.00;;;;;18.42;47.12;98677.59;5013051;28;45751;-66
2022/05/24 09:12:34;;;;;;;;;0.20;0.00;;;;;18.50;47.25;98680.47;5015703;28;45512;-66
2022/05/24 09:15:24;;;;;;;;;0.00;0.00;;;;;18.53;47.02;98682.91;5033105;28;45334;-67
2022/05/24 09:18:20;;;;;;;;;0.40;0.00;;;;;18.62;46.97;98690.22;5034074;28;45381;-67
2022/05/24 09:20:47;;;;;;;;;0.00;0.00;;;;;18.64;46.69;98682.06;5033885;28;45422;-66
2022/05/24 09:23:24;;;;;;;;;0.40;0.00;;;;;18.66;46.88;98693.50;5028439;28;45459;-68
2022/05/24 09:25:52;;;;;;;;;0.00;0.00;;;;;18.72;46.57;98683.19;5018345;28;45555;-67
2022/05/24 09:28:18;;;;;;;;;0.40;0.20;;;;;18.81;47.26;98689.59;5015926;28;45566;-67
2022/05/24 09:30:43;;;;;;;;;0.00;0.00;;;;;18.82;46.07;98689.47;5033611;28;45404;-66
2022/05/24 09:33:23;;;;;;;;;0.00;0.00;;;;;18.80;45.45;98702.09;5020293;28;45389;-66
2022/05/24 09:35:51;;;;;;;;;0.00;0.00;;;;;18.74;46.41;98686.59;5030948;28;45361;-67
2022/05/24 09:38:18;;;;;;;;;0.80;0.80;;;;;18.73;46.77;98684.88;5033411;28;45503;-67
2022/05/24 09:40:43;;;;;;;;;0.00;0.00;;;;;18.75;45.95;98690.94;5032745;28;45588;-67
2022/05/24 09:43:18;;;;;;;;;0.00;0.00;;;;;18.79;45.96;98695.03;5026583;28;46138;-67
2022/05/24 09:45:52;;;;;;;;;0.00;0.00;;;;;18.86;47.04;98681.22;5020048;28;45601;-67
2022/05/24 09:48:23;;;;;;;;;0.60;0.60;;;;;18.93;47.24;98685.94;5025105;28;45422;-67
2022/05/24 09:50:52;;;;;;;;;0.40;0.00;;;;;18.99;46.97;98671.22;5017021;28;45267;-66
2022/05/24 09:53:26;;;;;;;;;1.00;0.00;;;;;19.06;46.84;98680.44;5022634;28;45489;-67
2022/05/24 09:55:59;;;;;;;;;0.00;0.00;;;;;19.05;45.73;98676.91;4999424;28;45653;-67
2022/05/24 09:58:33;;;;;;;;;0.40;0.40;;;;;19.10;46.14;98663.19;5020714;28;45361;-67
2022/05/24 10:01:07;;;;;;;;;2.00;0.00;;;;;19.12;46.80;98667.41;5019620;28;45434;-67
2022/05/24 10:03:39;;;;;;;;;0.00;0.00;;;;;19.16;46.53;98678.69;5021653;28;46192;-67
2022/05/24 10:06:28;;;;;;;;;0.00;0.00;;;;;19.17;45.79;98675.91;5022910;28;45507;-67
2022/05/24 10:09:18;;;;;;;;;0.00;0.00;;;;;19.17;45.71;98675.06;5016782;28;45336;-67
2022/05/24 10:11:58;;;;;;;;;0.20;0.20;;;;;19.16;45.71;98676.03;5014887;28;45477;-66
2022/05/24 10:14:35;;;;;;;;;0.20;0.00;;;;;19.16;45.73;98682.22;5021462;28;45391;-66
2022/05/24 10:17:07;;;;;;;;;0.00;0.00;;;;;19.11;46.28;98673.72;5029365;28;45463;-67
2022/05/24 10:19:43;;;;;;;;;0.00;0.00;;;;;19.07;45.93;98680.31;5016905;28;45380;-67
2022/05/24 10:22:23;;;;;;;;;0.00;0.00;;;;;19.06;46.40;98667.09;5022696;28;45428;-67
2022/05/24 10:25:09;;;;;;;;;0.00;0.00;;;;;19.12;45.98;98667.41;5020491;28;45505;-66
2022/05/24 10:28:02;;;;;;;;;0.00;0.00;;;;;19.16;46.01;98668.88;5031404;28;45552;-67
2022/05/24 10:30:36;;;;;;;;;1.00;0.20;;;;;19.16;46.68;98674.22;5016951;28;45538;-67
2022/05/24 10:39:09;;;;;;;;;1.00;1.00;;;;;19.40;45.99;98679.34;5035488;28;45374;-67
2022/05/24 10:41:59;;;;;;;;;0.00;0.00;;;;;19.44;45.38;98675.44;5017966;28;45312;-65
2022/05/24 10:44:47;;;;;;;;;0.00;0.00;;;;;19.48;46.13;98662.66;5018692;28;45444;-67
2022/05/24 10:47:24;;;;;;;;;0.00;0.00;;;;;19.61;45.14;98655.34;5034269;28;46235;-67
2022/05/24 10:49:53;;;;;;;;;1.00;1.00;;;;;19.69;45.90;98654.69;5026572;28;45428;-67
2022/05/24 10:52:45;;;;;;;;;1.40;0.40;;;;;19.74;45.45;98653.34;5035484;28;45600;-67
2022/05/24 10:55:36;;;;;;;;;1.00;1.00;;;;;19.79;45.88;98656.44;5018256;28;45522;-67
2022/05/24 10:58:09;;;;;;;;;0.60;0.60;;;;;19.91;45.69;98657.25;5022792;28;45541;-67
2022/05/24 11:00:40;;;;;;;;;0.60;0.00;;;;;20.02;44.54;98651.81;5031478;28;45327;-67
2022/05/24 11:03:10;;;;;;;;;0.20;0.20;;;;;20.09;45.73;98634.25;5022422;28;45341;-67
2022/05/24 11:05:44;;;;;;;;;0.00;0.00;;;;;20.33;45.63;98630.41;5018179;28;45344;-67
2022/05/24 11:08:28;;;;;;;;;1.00;1.00;;;;;20.55;45.08;98630.25;5028816;28;47013;-67
2022/05/24 11:10:56;;;;;;;;;1.00;1.00;;;;;20.74;44.66;98634.81;5026016;28;45530;-67
2022/05/24 11:13:44;;;;;;;;;0.40;0.00;;;;;20.95;45.01;98632.03;5029453;28;45465;-67
2022/05/24 11:16:18;;;;;;;;;0.20;0.20;;;;;20.94;43.31;98630.34;5029527;28;45445;-67
2022/05/24 11:18:43;;;;;;;;;0.60;0.00;;;;;20.89;43.69;98622.72;5016422;28;46381;-67
2022/05/24 11:21:21;;;;;;;;;1.00;1.00;;;;;21.03;44.08;98610.75;5015993;28;45411;-67
2022/05/24 11:23:52;;;;;;;;;1.20;1.00;;;;;21.28;44.61;98606.72;5016381;28;45674;-67
2022/05/24 11:26:24;;;;;;;;;1.00;1.00;;;;;21.57;44.20;98619.09;5028927;28;45331;-67
2022/05/24 11:29:24;;;;;;;;;3.00;1.00;;;;;21.70;43.69;98609.91;5016090;28;46170;-68
2022/05/24 11:31:57;;;;;;;;;0.00;0.00;;;;;21.74;43.09;98614.84;5007449;28;45403;-67
2022/05/24 11:34:31;;;;;;;;;0.80;0.80;;;;;21.73;41.83;98615.84;5015194;28;45400;-68
2022/05/24 11:37:24;;;;;;;;;0.00;0.00;;;;;21.66;42.02;98606.66;5016044;28;45629;-68
2022/05/24 11:39:51;;;;;;;;;0.40;0.40;;;;;21.66;42.94;98612.00;5018403;28;46488;-67
2022/05/24 11:42:34;;;;;;;;;1.00;1.00;;;;;21.77;42.16;98602.97;5035087;28;45398;-66
2022/05/24 11:45:20;;;;;;;;;1.20;0.40;;;;;21.86;43.27;98594.88;5036175;28;45455;-66
2022/05/24 11:47:46;;;;;;;;;0.20;0.20;;;;;22.12;42.48;98592.41;5036095;28;45446;-67
2022/05/24 11:50:39;;;;;;;;;1.00;1.00;;;;;22.40;42.85;98592.47;5035952;28;45408;-68
2022/05/24 11:53:29;;;;;;;;;1.40;1.40;;;;;22.65;40.45;98597.13;5035798;28;45354;-67
2022/05/24 11:55:54;;;;;;;;;1.00;0.20;;;;;22.64;41.88;98582.00;5035696;28;45374;-67
2022/05/24 11:58:40;;;;;;;;;0.50;0.50;;;;;22.73;42.17;98574.88;5035681;28;45354;-67
2022/05/24 12:01:17;;;;;;;;;1.00;0.80;;;;;22.93;42.12;98569.25;5035807;28;45385;-67
2022/05/24 12:10:00;;;;;;;;;1.60;0.80;;;;;23.23;40.81;98559.94;5035644;28;45367;-67
2022/05/24 12:12:33;;;;;;;;;1.00;1.00;;;;;23.38;41.06;98570.16;5035323;28;45428;-67
2022/05/24 12:15:22;;;;;;;;;0.00;0.00;;;;;23.47;41.44;98556.59;5017927;28;45394;-67
2022/05/24 12:18:08;;;;;;;;;2.20;2.20;;;;;23.59;41.49;98549.16;5023440;28;45326;-67
2022/05/24 12:20:33;;;;;;;;;0.00;0.00;;;;;23.60;41.51;98553.56;4998949;28;45758;-67
2022/05/24 12:23:07;;;;;;;;;1.25;1.00;;;;;23.57;40.04;98548.47;5015215;28;46361;-67
2022/05/24 12:26:03;;;;;;;;;1.00;1.00;;;;;23.65;40.74;98548.50;5015483;28;45502;-67
2022/05/24 12:28:28;;;;;;;;;0.00;0.00;;;;;23.82;40.54;98538.69;5015815;28;45411;-67
2022/05/24 12:30:57;;;;;;;;;0.75;0.25;;;;;23.88;40.54;98541.59;5015548;28;45363;-67
2022/05/24 12:33:31;;;;;;;;;1.20;0.80;;;;;23.97;40.16;98546.03;5014620;28;45456;-67